Time;durP1;ratioP1;P1;durP2;ratioP2;P2;SDS_P1;SDS_P2;PMS_P1;PMS_P2;Temp;Humidity;BMP_temperature;BMP_pressure;BME280_temperature;BME280_humidity;BME280_pressure;Samples;Min_cycle;Max_cycle;Signal;HPM_P1;HPM_P2
2022/05/09 00:01:04;;;;;;;3.33;2.40;;;15.70;55.30;;;;;;5073364;28;20464;-68
2022/05/09 00:03:32;;;;;;;7.27;1.80;;;15.70;55.50;;;;;;5073456;28;20464;-68
2022/05/09 00:06:01;;;;;;;2.40;2.20;;;15.60;55.70;;;;;;5073475;28;20455;-68
2022/05/09 00:08:27;;;;;;;4.30;2.27;;;15.60;55.90;;;;;;5073289;28;20449;-68
2022/05/09 00:10:54;;;;;;;3.20;2.30;;;15.60;56.10;;;;;;5073225;28;20455;-67
2022/05/09 00:13:21;;;;;;;3.97;2.13;;;15.50;56.20;;;;;;5074148;28;20452;-68
2022/05/09 00:15:48;;;;;;;4.77;2.47;;;15.50;56.30;;;;;;5073571;28;20451;-67
2022/05/09 00:18:16;;;;;;;2.17;1.90;;;15.40;56.50;;;;;;5077372;28;20488;-68
2022/05/09 00:20:45;;;;;;;3.77;2.67;;;15.40;56.60;;;;;;5077386;28;20448;-68
2022/05/09 00:23:11;;;;;;;3.03;1.97;;;15.40;56.70;;;;;;5077328;28;20816;-68
2022/05/09 00:25:38;;;;;;;2.93;2.10;;;15.30;56.80;;;;;;5077132;28;20826;-68
2022/05/09 00:28:06;;;;;;;7.77;2.93;;;15.20;56.90;;;;;;5077222;28;20466;-68
2022/05/09 00:30:32;;;;;;;5.60;1.97;;;15.10;57.00;;;;;;5077182;28;20452;-68
2022/05/09 00:32:59;;;;;;;2.60;2.13;;;15.10;57.20;;;;;;5076997;28;20885;-68
2022/05/09 00:35:26;;;;;;;2.67;2.23;;;15.10;57.20;;;;;;5076705;28;20911;-68
2022/05/09 00:37:54;;;;;;;2.20;2.10;;;15.00;57.20;;;;;;5076614;28;20483;-68
2022/05/09 00:40:21;;;;;;;4.27;2.10;;;15.00;57.50;;;;;;5076988;28;20444;-68
2022/05/09 00:42:49;;;;;;;5.57;2.20;;;15.00;57.70;;;;;;5076192;28;20475;-68
2022/05/09 00:45:17;;;;;;;5.27;2.60;;;14.90;58.40;;;;;;5076511;28;20842;-68
2022/05/09 00:47:44;;;;;;;8.60;2.30;;;15.00;58.10;;;;;;5076899;28;20460;-67
2022/05/09 00:50:13;;;;;;;4.27;2.10;;;14.90;58.10;;;;;;5076448;28;20444;-68
2022/05/09 00:52:44;;;;;;;4.63;2.70;;;14.90;58.20;;;;;;5076657;28;20483;-68
2022/05/09 00:55:16;;;;;;;3.30;2.13;;;14.90;58.40;;;;;;5076783;28;20467;-68
2022/05/09 00:57:50;;;;;;;3.30;2.40;;;14.90;58.70;;;;;;5076421;28;20853;-68
2022/05/09 01:00:19;;;;;;;6.60;2.77;;;14.90;58.90;;;;;;5076563;28;20874;-68
2022/05/09 01:02:50;;;;;;;4.40;2.83;;;14.90;59.00;;;;;;5076604;28;20469;-68
2022/05/09 01:05:18;;;;;;;2.97;2.67;;;14.90;59.20;;;;;;5076568;28;20444;-69
2022/05/09 01:07:45;;;;;;;4.63;3.33;;;14.80;59.40;;;;;;5076276;28;21014;-68
2022/05/09 01:10:15;;;;;;;4.23;2.73;;;14.80;59.60;;;;;;5076298;28;20459;-68
2022/05/09 01:12:45;;;;;;;4.00;2.73;;;14.80;59.80;;;;;;5076407;28;20468;-68
2022/05/09 01:15:16;;;;;;;4.80;2.90;;;14.80;60.10;;;;;;5076112;28;20951;-68
2022/05/09 01:17:46;;;;;;;4.37;2.83;;;14.80;60.30;;;;;;5076225;28;20508;-68
2022/05/09 01:20:13;;;;;;;5.07;3.47;;;14.80;60.40;;;;;;5076903;28;20456;-68
2022/05/09 01:22:42;;;;;;;3.23;2.77;;;14.80;60.70;;;;;;5076311;28;20542;-68
2022/05/09 01:25:13;;;;;;;4.83;2.90;;;14.80;60.80;;;;;;5076325;28;20456;-68
2022/05/09 01:27:42;;;;;;;4.60;3.40;;;14.80;60.80;;;;;;5075029;28;20445;-68
2022/05/09 01:30:14;;;;;;;2.97;2.57;;;14.70;60.40;;;;;;5076165;28;20455;-68
2022/05/09 01:32:51;;;;;;;5.10;2.93;;;14.60;60.10;;;;;;5076161;28;20492;-68
2022/05/09 01:35:23;;;;;;;8.80;2.90;;;14.60;60.20;;;;;;5076290;28;20445;-68
2022/05/09 01:37:54;;;;;;;3.37;2.50;;;14.60;60.40;;;;;;5076050;28;20472;-68
2022/05/09 01:40:21;;;;;;;7.63;3.37;;;14.50;60.40;;;;;;5075942;28;20437;-68
2022/05/09 01:42:47;;;;;;;3.50;2.73;;;14.50;60.40;;;;;;5075776;28;20476;-68
2022/05/09 01:45:14;;;;;;;3.30;2.30;;;14.40;60.40;;;;;;5075748;28;20460;-68
2022/05/09 01:50:26;;;;;;;3.20;2.90;;;14.40;61.10;;;;;;5075986;28;20777;-68
2022/05/09 01:52:55;;;;;;;4.23;2.70;;;14.30;61.30;;;;;;5076087;28;20471;-68
2022/05/09 01:55:22;;;;;;;3.57;2.67;;;14.30;61.50;;;;;;5075978;28;20516;-68
2022/05/09 01:57:50;;;;;;;4.47;3.13;;;14.30;61.50;;;;;;5075523;28;20495;-68
2022/05/09 02:00:18;;;;;;;4.47;2.60;;;14.20;61.40;;;;;;5075536;28;20453;-68
2022/05/09 02:02:45;;;;;;;3.30;2.53;;;14.20;61.50;;;;;;5075559;28;20535;-68
2022/05/09 02:05:12;;;;;;;4.60;2.17;;;14.10;61.50;;;;;;5075586;28;20459;-68
2022/05/09 02:07:39;;;;;;;4.43;2.23;;;14.10;61.60;;;;;;5075777;28;20944;-68
2022/05/09 02:10:09;;;;;;;3.93;2.87;;;14.00;61.60;;;;;;5076563;28;20460;-68
2022/05/09 02:12:35;;;;;;;3.80;2.57;;;14.00;61.50;;;;;;5075950;28;20469;-68
2022/05/09 02:15:02;;;;;;;4.77;2.80;;;13.90;61.50;;;;;;5075318;28;20979;-68
2022/05/09 02:17:31;;;;;;;4.07;3.17;;;13.90;61.90;;;;;;5075357;28;20818;-68
2022/05/09 02:19:58;;;;;;;5.57;3.50;;;13.90;62.20;;;;;;5075341;28;20460;-67
2022/05/09 02:22:26;;;;;;;4.70;3.40;;;13.90;62.30;;;;;;5074979;28;20502;-66
2022/05/09 02:24:53;;;;;;;3.90;3.00;;;13.80;62.60;;;;;;5074878;28;20461;-68
2022/05/09 02:27:22;;;;;;;4.20;2.57;;;13.80;63.00;;;;;;5074990;28;20456;-68
2022/05/09 02:29:48;;;;;;;4.43;2.80;;;13.80;63.10;;;;;;5074951;28;20453;-68
2022/05/09 02:32:16;;;;;;;3.63;2.73;;;13.70;63.50;;;;;;5074886;28;20468;-68
2022/05/09 02:34:43;;;;;;;7.03;3.90;;;13.70;64.50;;;;;;5075172;28;20858;-70
2022/05/09 02:37:10;;;;;;;3.63;2.97;;;13.70;63.90;;;;;;5074769;28;20444;-68
2022/05/09 02:39:36;;;;;;;3.83;3.13;;;13.70;64.30;;;;;;5074314;28;20487;-68
2022/05/09 02:42:04;;;;;;;4.33;3.87;;;13.60;64.60;;;;;;5074610;28;20471;-68
2022/05/09 02:44:32;;;;;;;6.03;3.33;;;13.50;64.30;;;;;;5074208;28;20461;-68
2022/05/09 02:46:59;;;;;;;4.33;3.00;;;13.50;64.20;;;;;;5074137;28;20800;-68
2022/05/09 02:49:25;;;;;;;3.37;3.07;;;13.40;64.30;;;;;;5074048;28;20455;-68
2022/05/09 02:51:52;;;;;;;7.77;4.13;;;13.40;64.40;;;;;;5074573;28;20835;-68
2022/05/09 02:54:19;;;;;;;6.00;3.03;;;13.40;64.50;;;;;;5074134;28;21030;-68
2022/05/09 02:56:46;;;;;;;5.63;3.40;;;13.40;64.60;;;;;;5074231;28;20506;-68
2022/05/09 02:59:12;;;;;;;3.40;3.10;;;13.40;64.90;;;;;;5074182;28;20487;-68
2022/05/09 03:01:40;;;;;;;8.77;3.77;;;13.30;64.90;;;;;;5073865;28;20991;-68
2022/05/09 03:06:51;;;;;;;9.40;3.90;;;13.20;65.00;;;;;;5074162;28;20410;-68
2022/05/09 03:09:18;;;;;;;4.13;3.50;;;13.20;65.40;;;;;;5074178;28;20452;-68
2022/05/09 03:11:45;;;;;;;3.87;3.30;;;13.20;65.80;;;;;;5074277;28;20464;-69
2022/05/09 03:14:12;;;;;;;3.53;3.23;;;13.20;66.00;;;;;;5074417;28;20484;-69
2022/05/09 03:16:40;;;;;;;5.57;3.57;;;13.10;66.00;;;;;;5074285;28;20444;-68
2022/05/09 03:19:07;;;;;;;6.33;3.77;;;13.10;66.30;;;;;;5074245;28;20485;-68
2022/05/09 03:21:33;;;;;;;4.50;3.83;;;13.10;66.40;;;;;;5074263;28;20468;-68
2022/05/09 03:24:00;;;;;;;5.70;3.47;;;13.00;66.50;;;;;;5073910;28;20460;-68
2022/05/09 03:26:27;;;;;;;5.50;3.70;;;13.00;66.60;;;;;;5073989;28;20456;-68
2022/05/09 03:28:54;;;;;;;5.20;3.83;;;13.00;66.80;;;;;;5074512;28;20460;-68
2022/05/09 03:31:21;;;;;;;7.80;3.03;;;13.00;67.10;;;;;;5073722;28;20472;-68
2022/05/09 03:33:50;;;;;;;4.97;3.47;;;12.90;67.00;;;;;;5073501;28;20978;-68
2022/05/09 03:36:16;;;;;;;6.80;3.43;;;12.90;67.10;;;;;;5073656;28;20437;-68
2022/05/09 03:38:43;;;;;;;6.57;3.43;;;12.80;67.50;;;;;;5073373;28;20995;-68
2022/05/09 03:41:10;;;;;;;3.57;3.13;;;12.80;67.40;;;;;;5073815;28;20469;-68
2022/05/09 03:43:37;;;;;;;4.13;3.73;;;12.80;67.60;;;;;;5073248;28;20977;-68
2022/05/09 03:46:04;;;;;;;5.60;3.93;;;12.80;67.90;;;;;;5073742;28;20810;-68
2022/05/09 03:48:31;;;;;;;4.87;3.77;;;12.80;68.10;;;;;;5073541;28;20452;-67
2022/05/09 03:51:01;;;;;;;5.60;4.10;;;12.80;68.20;;;;;;5073023;28;20475;-67
2022/05/09 03:53:28;;;;;;;5.77;3.83;;;12.80;68.40;;;;;;5074157;28;20448;-68
2022/05/09 03:55:55;;;;;;;5.90;4.07;;;12.70;68.50;;;;;;5073475;28;20959;-68
2022/05/09 03:58:21;;;;;;;4.63;3.47;;;12.70;68.80;;;;;;5073444;28;20481;-68
2022/05/09 04:00:48;;;;;;;4.03;3.67;;;12.60;68.90;;;;;;5073615;28;20457;-68
2022/05/09 04:03:15;;;;;;;7.90;4.20;;;12.60;70.10;;;;;;5073568;28;20970;-68
2022/05/09 04:05:42;;;;;;;7.70;4.53;;;12.60;69.50;;;;;;5073716;28;20449;-68
2022/05/09 04:08:12;;;;;;;6.17;4.40;;;12.60;69.70;;;;;;5073698;28;20453;-69
2022/05/09 04:10:40;;;;;;;5.17;4.43;;;12.60;69.70;;;;;;5073270;28;20908;-69
2022/05/09 04:13:08;;;;;;;7.20;4.50;;;12.60;69.80;;;;;;5073820;28;20509;-68
2022/05/09 04:18:21;;;;;;;5.73;4.30;;;12.50;70.00;;;;;;5073916;28;20510;-69
2022/05/09 04:20:50;;;;;;;6.40;4.10;;;12.50;70.10;;;;;;5073656;28;20455;-68
2022/05/09 04:23:18;;;;;;;6.40;4.50;;;12.50;70.50;;;;;;5073586;28;20445;-68
2022/05/09 04:25:46;;;;;;;7.70;4.27;;;12.50;70.60;;;;;;5073377;28;20463;-69
2022/05/09 04:28:16;;;;;;;10.60;4.83;;;12.50;70.80;;;;;;5073721;28;20463;-69
2022/05/09 04:30:43;;;;;;;6.20;4.10;;;12.50;71.10;;;;;;5073503;28;20453;-69
2022/05/09 04:33:09;;;;;;;4.67;3.63;;;12.60;71.30;;;;;;5073068;28;20966;-70
2022/05/09 04:35:39;;;;;;;5.87;3.97;;;12.60;71.20;;;;;;5073071;28;20452;-70
2022/05/09 04:38:07;;;;;;;8.53;4.10;;;12.60;71.30;;;;;;5072615;28;20948;-70
2022/05/09 04:40:37;;;;;;;7.73;4.87;;;12.60;71.50;;;;;;5072873;28;20444;-70
2022/05/09 04:43:04;;;;;;;4.87;4.07;;;12.60;71.50;;;;;;5072513;28;21002;-70
2022/05/09 04:45:32;;;;;;;9.10;4.73;;;12.60;71.60;;;;;;5072997;28;20842;-70
2022/05/09 04:47:59;;;;;;;7.70;4.57;;;12.70;71.80;;;;;;5072627;28;20956;-70
2022/05/09 04:50:28;;;;;;;5.63;4.97;;;12.60;71.90;;;;;;5072754;28;20456;-69
2022/05/09 04:52:55;;;;;;;10.60;4.90;;;12.70;72.20;;;;;;5072964;28;20559;-69
2022/05/09 04:55:22;;;;;;;9.60;4.80;;;12.70;72.40;;;;;;5072998;28;20437;-70
2022/05/09 04:57:51;;;;;;;4.93;4.53;;;12.70;72.70;;;;;;5072494;28;20952;-70
2022/05/09 05:00:21;;;;;;;6.30;4.77;;;12.70;72.90;;;;;;5072673;28;20507;-69
2022/05/09 05:02:47;;;;;;;8.60;4.90;;;12.80;73.10;;;;;;5074685;28;20471;-69
2022/05/09 05:05:14;;;;;;;6.50;5.10;;;12.80;73.30;;;;;;5076543;28;20452;-69
2022/05/09 05:07:42;;;;;;;10.40;5.20;;;12.80;73.40;;;;;;5076489;28;20449;-69
2022/05/09 05:10:10;;;;;;;7.63;5.23;;;12.80;73.60;;;;;;5076303;28;20539;-69
2022/05/09 05:12:37;;;;;;;9.90;6.00;;;12.90;74.20;;;;;;5076337;28;20483;-69
2022/05/09 05:15:06;;;;;;;8.77;4.90;;;12.90;74.40;;;;;;5076298;28;20543;-69
2022/05/09 05:17:33;;;;;;;7.93;5.03;;;12.90;74.50;;;;;;5076360;28;20452;-69
2022/05/09 05:20:02;;;;;;;7.63;5.70;;;12.90;74.80;;;;;;5076115;28;20553;-69
2022/05/09 05:22:29;;;;;;;6.13;5.53;;;12.90;75.40;;;;;;5076368;28;20479;-69
2022/05/09 05:24:56;;;;;;;8.47;5.90;;;13.00;76.00;;;;;;5076298;28;20444;-69
2022/05/09 05:27:23;;;;;;;9.80;6.30;;;13.10;75.90;;;;;;5076008;28;20445;-69
2022/05/09 05:29:50;;;;;;;8.73;5.63;;;13.10;75.60;;;;;;5076045;28;20448;-69
2022/05/09 05:32:20;;;;;;;9.23;5.60;;;13.20;75.70;;;;;;5076017;28;20472;-69
2022/05/09 05:34:47;;;;;;;7.83;5.67;;;13.20;75.20;;;;;;5075695;28;20956;-69
2022/05/09 05:37:15;;;;;;;7.43;5.33;;;13.30;75.20;;;;;;5076113;28;20459;-70
2022/05/09 05:39:43;;;;;;;10.33;5.73;;;13.40;75.30;;;;;;5076185;28;20485;-69
2022/05/09 05:42:11;;;;;;;8.30;6.10;;;13.30;75.20;;;;;;5075990;28;20465;-69
2022/05/09 05:44:38;;;;;;;10.70;6.00;;;13.40;75.50;;;;;;5075457;28;20982;-69
2022/05/09 05:47:07;;;;;;;10.47;6.27;;;13.50;75.40;;;;;;5075635;28;20453;-69
2022/05/09 05:49:37;;;;;;;24.87;5.73;;;13.60;75.50;;;;;;5075614;28;20507;-69
2022/05/09 05:52:04;;;;;;;10.33;5.63;;;13.60;75.40;;;;;;5075822;28;20460;-68
2022/05/09 05:54:33;;;;;;;10.07;6.47;;;13.70;75.40;;;;;;5075445;28;20452;-68
2022/05/09 05:57:00;;;;;;;12.00;6.03;;;13.80;75.60;;;;;;5075498;28;20506;-68
2022/05/09 05:59:27;;;;;;;9.20;6.10;;;13.90;75.40;;;;;;5075054;28;20491;-68
2022/05/09 06:01:54;;;;;;;9.30;6.47;;;13.90;75.90;;;;;;5075458;28;20479;-68
2022/05/09 06:04:21;;;;;;;10.33;6.07;;;14.00;76.40;;;;;;5075513;28;20449;-70
2022/05/09 06:06:50;;;;;;;8.63;4.50;;;14.10;76.60;;;;;;5075635;28;20455;-68
2022/05/09 06:09:17;;;;;;;6.80;6.10;;;14.20;76.80;;;;;;5075405;28;20455;-68
2022/05/09 06:11:45;;;;;;;7.10;5.27;;;14.40;76.90;;;;;;5075337;28;20460;-69
2022/05/09 06:14:13;;;;;;;7.70;6.37;;;14.50;76.40;;;;;;5074627;28;20452;-69
2022/05/09 06:16:40;;;;;;;8.53;5.13;;;14.60;75.50;;;;;;5074815;28;20863;-69
2022/05/09 06:19:10;;;;;;;7.43;5.50;;;14.70;75.00;;;;;;5075023;28;20492;-68
2022/05/09 06:21:37;;;;;;;8.20;5.20;;;14.90;75.00;;;;;;5074981;28;20476;-69
2022/05/09 06:24:08;;;;;;;7.30;5.97;;;15.00;74.30;;;;;;5075035;28;20487;-68
2022/05/09 06:26:36;;;;;;;7.20;5.57;;;15.20;73.20;;;;;;5074728;28;20433;-68
2022/05/09 06:29:06;;;;;;;7.60;5.60;;;15.40;71.30;;;;;;5075085;28;20460;-68
2022/05/09 06:31:35;;;;;;;9.10;5.00;;;15.50;70.20;;;;;;5075022;28;20479;-69
2022/05/09 06:34:02;;;;;;;7.73;5.50;;;15.70;70.40;;;;;;5075070;28;20498;-70
2022/05/09 06:36:33;;;;;;;7.87;5.33;;;15.80;69.60;;;;;;5074881;28;20452;-69
2022/05/09 06:39:00;;;;;;;8.53;5.73;;;16.00;69.00;;;;;;5074741;28;20441;-68
2022/05/09 06:41:28;;;;;;;7.00;4.63;;;16.20;68.20;;;;;;5074374;28;21011;-68
2022/05/09 06:43:54;;;;;;;8.47;7.30;;;16.30;67.40;;;;;;5074751;28;20456;-68
2022/05/09 06:46:21;;;;;;;12.33;7.33;;;16.50;66.30;;;;;;5074502;28;20464;-68
2022/05/09 06:48:49;;;;;;;13.53;8.77;;;16.60;65.60;;;;;;5074517;28;20456;-68
2022/05/09 06:51:16;;;;;;;15.43;7.80;;;16.70;64.80;;;;;;5074432;28;20472;-68
2022/05/09 06:53:44;;;;;;;12.93;7.90;;;16.90;64.10;;;;;;5074425;28;20824;-69
2022/05/09 06:56:11;;;;;;;8.77;6.00;;;17.10;63.60;;;;;;5074434;28;20506;-68
2022/05/09 06:58:39;;;;;;;9.60;5.20;;;17.20;62.20;;;;;;5073953;28;20460;-68
2022/05/09 07:01:14;;;;;;;6.90;4.97;;;17.50;61.30;;;;;;5074265;28;20496;-68
2022/05/09 07:03:42;;;;;;;13.33;5.90;;;17.60;60.60;;;;;;5074414;28;20437;-69
2022/05/09 07:06:08;;;;;;;9.03;4.37;;;17.80;59.70;;;;;;5074140;28;20965;-68
2022/05/09 07:08:37;;;;;;;10.77;5.63;;;18.00;59.20;;;;;;5073813;28;20456;-68
2022/05/09 07:11:05;;;;;;;6.80;4.90;;;18.20;58.90;;;;;;5074402;28;20469;-68
2022/05/09 07:13:33;;;;;;;6.80;4.67;;;18.40;58.40;;;;;;5074497;28;20480;-69
2022/05/09 07:16:01;;;;;;;5.57;4.10;;;18.60;57.80;;;;;;5072813;28;20500;-68
2022/05/09 07:18:28;;;;;;;5.10;3.93;;;18.80;57.30;;;;;;5074425;28;20453;-68
2022/05/09 07:20:55;;;;;;;8.17;4.77;;;19.00;56.80;;;;;;5074115;28;20579;-68
2022/05/09 07:23:22;;;;;;;7.27;3.90;;;19.20;56.30;;;;;;5073985;28;20440;-68
2022/05/09 07:25:51;;;;;;;5.90;4.40;;;19.40;56.00;;;;;;5073348;28;20879;-68
2022/05/09 07:28:19;;;;;;;8.20;4.40;;;19.60;55.30;;;;;;5073716;28;20812;-68
2022/05/09 07:30:46;;;;;;;4.60;3.50;;;19.70;54.30;;;;;;5073723;28;20452;-69
2022/05/09 07:33:17;;;;;;;10.20;4.10;;;19.90;54.20;;;;;;5073701;28;20444;-68
2022/05/09 07:35:44;;;;;;;6.17;3.57;;;20.00;53.50;;;;;;5073686;28;20437;-69
2022/05/09 07:38:11;;;;;;;6.90;4.10;;;20.10;53.00;;;;;;5073231;28;20853;-69
2022/05/09 07:40:40;;;;;;;6.40;3.90;;;20.30;52.40;;;;;;5073249;28;20983;-69
2022/05/09 07:43:12;;;;;;;6.60;4.17;;;20.40;51.50;;;;;;5073307;28;20448;-69
2022/05/09 07:45:39;;;;;;;6.50;3.83;;;20.60;51.30;;;;;;5073578;28;20444;-68
2022/05/09 07:48:07;;;;;;;9.03;3.40;;;20.70;50.50;;;;;;5073602;28;20452;-69
2022/05/09 07:50:38;;;;;;;4.50;3.03;;;20.70;50.10;;;;;;5073586;28;20464;-69
2022/05/09 07:53:10;;;;;;;6.37;3.27;;;20.80;50.00;;;;;;5073775;28;20441;-68
2022/05/09 07:55:37;;;;;;;5.77;3.20;;;20.90;49.80;;;;;;5073206;28;20429;-68
2022/05/09 07:58:04;;;;;;;7.87;3.03;;;21.10;50.10;;;;;;5073451;28;20540;-68
2022/05/09 08:00:31;;;;;;;5.03;2.80;;;21.30;49.80;;;;;;5073194;28;20530;-68
2022/05/09 08:02:57;;;;;;;5.57;3.43;;;21.50;48.80;;;;;;5073498;28;20476;-68
2022/05/09 08:05:25;;;;;;;5.03;2.73;;;21.60;48.40;;;;;;5073358;28;20460;-69
2022/05/09 08:07:53;;;;;;;6.57;3.40;;;21.70;48.20;;;;;;5073481;28;20457;-69
2022/05/09 08:10:21;;;;;;;5.30;3.00;;;21.90;48.30;;;;;;5073304;28;20513;-68
2022/05/09 08:12:49;;;;;;;7.97;2.57;;;22.10;47.60;;;;;;5073334;28;20468;-68
2022/05/09 08:15:18;;;;;;;9.83;3.43;;;22.30;47.70;;;;;;5073308;28;20425;-68
2022/05/09 08:17:47;;;;;;;3.57;2.67;;;22.70;47.80;;;;;;5073256;28;20451;-69
2022/05/09 08:20:15;;;;;;;7.03;3.43;;;22.90;46.80;;;;;;5073388;28;20542;-69
2022/05/09 08:22:44;;;;;;;7.37;2.90;;;23.20;45.50;;;;;;5073207;28;20461;-69
2022/05/09 08:25:13;;;;;;;6.17;3.27;;;23.30;45.30;;;;;;5075245;28;20545;-68
2022/05/09 08:27:41;;;;;;;5.00;3.00;;;23.60;45.70;;;;;;5073413;28;20455;-69
2022/05/09 08:30:10;;;;;;;4.70;3.20;;;23.80;45.50;;;;;;5073129;28;20441;-69
2022/05/09 08:32:37;;;;;;;4.67;2.83;;;24.10;44.90;;;;;;5073083;28;20472;-69
2022/05/09 08:35:05;;;;;;;5.67;3.00;;;24.30;44.40;;;;;;5073086;28;20453;-69
2022/05/09 08:37:33;;;;;;;7.43;4.50;;;24.50;44.00;;;;;;5074457;28;20440;-69
2022/05/09 08:40:00;;;;;;;8.47;3.30;;;24.80;43.30;;;;;;5076922;28;20503;-68
2022/05/09 08:42:41;;;;;;;8.03;3.60;;;25.00;42.30;;;;;;5076867;28;20836;-69
2022/05/09 08:45:25;;;;;;;7.07;3.13;;;25.20;42.90;;;;;;5076510;28;20955;-68
2022/05/09 08:48:11;;;;;;;4.80;3.20;;;25.50;42.70;;;;;;5076941;28;20437;-68
2022/05/09 08:50:52;;;;;;;6.03;2.57;;;25.80;41.80;;;;;;5077046;28;20429;-68
2022/05/09 08:53:23;;;;;;;5.27;3.90;;;26.00;41.20;;;;;;5076786;28;20432;-69
2022/05/09 08:55:51;;;;;;;7.87;4.17;;;26.30;40.60;;;;;;5076728;28;20436;-69
2022/05/09 08:58:39;;;;;;;9.60;3.83;;;26.40;40.60;;;;;;5076650;28;20452;-68
2022/05/09 09:01:12;;;;;;;6.70;3.57;;;26.70;40.70;;;;;;5076554;28;20488;-69
2022/05/09 09:03:43;;;;;;;4.80;3.83;;;26.80;39.60;;;;;;5076634;28;20440;-68
2022/05/09 09:06:20;;;;;;;5.73;3.20;;;27.00;39.80;;;;;;5076756;28;20472;-68
2022/05/09 09:09:02;;;;;;;7.83;4.20;;;27.20;38.60;;;;;;5076298;28;20428;-68
2022/05/09 09:11:40;;;;;;;4.90;3.67;;;27.30;37.80;;;;;;5076249;28;20472;-68
2022/05/09 09:14:16;;;;;;;5.93;3.20;;;27.50;37.80;;;;;;5076329;28;20440;-68
2022/05/09 09:17:05;;;;;;;10.37;3.93;;;27.70;38.30;;;;;;5076009;28;20908;-68
2022/05/09 09:19:53;;;;;;;9.63;5.17;;;27.90;37.50;;;;;;5076488;28;20440;-69
2022/05/09 09:22:36;;;;;;;5.40;3.27;;;28.10;36.00;;;;;;5076260;28;20490;-69
2022/05/09 09:25:16;;;;;;;5.10;3.57;;;28.00;35.90;;;;;;5076292;28;20448;-69
2022/05/09 09:27:47;;;;;;;6.83;3.37;;;28.10;37.70;;;;;;5076168;28;20429;-68
2022/05/09 09:30:18;;;;;;;5.37;3.63;;;28.20;37.70;;;;;;5076079;28;20429;-68
2022/05/09 09:32:50;;;;;;;6.47;4.50;;;28.50;37.00;;;;;;5075719;28;20987;-68
2022/05/09 09:35:26;;;;;;;8.00;4.37;;;28.70;37.10;;;;;;5076014;28;20440;-69
2022/05/09 09:37:58;;;;;;;5.67;4.03;;;28.90;34.50;;;;;;5075705;28;20916;-69
2022/05/09 09:40:25;;;;;;;4.50;3.90;;;29.10;35.00;;;;;;5075870;28;20484;-68
2022/05/09 09:42:53;;;;;;;6.60;3.20;;;29.30;34.80;;;;;;5075753;28;20472;-69
2022/05/09 09:45:28;;;;;;;6.47;4.83;;;29.60;34.40;;;;;;5075745;28;20490;-69
2022/05/09 09:48:12;;;;;;;6.70;3.83;;;29.80;33.40;;;;;;5075957;28;20425;-69
2022/05/09 09:50:52;;;;;;;10.30;5.30;;;30.00;32.80;;;;;;5055503;28;20528;-69
2022/05/09 09:53:35;;;;;;;6.93;4.27;;;30.20;32.50;;;;;;5056025;28;20460;-66
2022/05/09 09:56:06;;;;;;;6.87;3.97;;;30.30;32.10;;;;;;5055529;28;20453;-67
2022/05/09 09:58:33;;;;;;;6.23;4.80;;;30.60;32.20;;;;;;5055626;28;20460;-67
2022/05/09 10:01:10;;;;;;;5.10;3.60;;;30.90;32.70;;;;;;5055433;28;20492;-66
2022/05/09 10:03:39;;;;;;;8.33;3.87;;;31.20;32.60;;;;;;5055554;28;20511;-67
2022/05/09 10:06:15;;;;;;;4.50;3.93;;;31.50;31.30;;;;;;5055376;28;20503;-67
2022/05/09 10:08:43;;;;;;;11.03;4.30;;;31.90;31.20;;;;;;5055414;28;20444;-67
2022/05/09 10:11:12;;;;;;;5.23;3.33;;;32.30;31.10;;;;;;5054909;28;21021;-67
2022/05/09 10:13:43;;;;;;;6.47;5.80;;;32.60;31.00;;;;;;5055319;28;20457;-67
2022/05/09 10:16:22;;;;;;;7.27;5.40;;;33.10;30.00;;;;;;5055426;28;20440;-67
2022/05/09 10:18:50;;;;;;;6.90;4.33;;;33.20;28.80;;;;;;5055275;28;20444;-67
2022/05/09 10:26:55;;;;;;;9.83;5.33;;;34.30;27.20;;;;;;5055033;28;20527;-68
2022/05/09 10:29:24;;;;;;;5.07;4.57;;;34.40;26.80;;;;;;5054681;28;20963;-68
2022/05/09 10:31:54;;;;;;;9.03;4.87;;;34.70;27.40;;;;;;5055030;28;20473;-68
2022/05/09 10:34:26;;;;;;;6.50;4.67;;;35.20;26.80;;;;;;5054561;28;20819;-68
2022/05/09 10:36:57;;;;;;;6.40;4.07;;;35.70;26.30;;;;;;5055587;28;20441;-68
2022/05/09 10:39:27;;;;;;;6.93;4.33;;;36.20;25.70;;;;;;5054763;28;20441;-69
2022/05/09 10:41:57;;;;;;;6.50;4.33;;;36.80;25.60;;;;;;5054948;28;20230;-68
2022/05/09 10:44:29;;;;;;;7.37;4.57;;;37.30;24.90;;;;;;5054186;28;20579;-68
2022/05/09 10:47:01;;;;;;;8.60;4.60;;;37.80;25.00;;;;;;5054725;28;20194;-69
2022/05/09 10:49:37;;;;;;;6.03;4.05;;;38.30;24.70;;;;;;5054618;28;20709;-68
2022/05/09 10:52:14;;;;;;;13.48;5.65;;;38.80;24.30;;;;;;5055130;28;20229;-68
2022/05/09 10:54:49;;;;;;;7.03;4.15;;;39.30;22.70;;;;;;5054783;28;20562;-68
2022/05/09 10:57:23;;;;;;;6.40;4.90;;;39.60;22.70;;;;;;5054442;28;20216;-68
2022/05/09 10:59:50;;;;;;;7.68;5.32;;;39.80;22.00;;;;;;5054108;28;20650;-68
2022/05/09 11:02:25;;;;;;;5.35;4.00;;;39.90;20.90;;;;;;5054176;28;20233;-68
2022/05/09 11:04:52;;;;;;;7.15;4.40;;;40.00;21.20;;;;;;5054352;28;20267;-68
2022/05/09 11:07:29;;;;;;;5.68;5.10;;;40.20;20.00;;;;;;5054170;28;20209;-68
2022/05/09 11:10:07;;;;;;;6.40;4.55;;;40.40;19.90;;;;;;5054196;28;20186;-68
2022/05/09 11:12:44;;;;;;;5.32;3.95;;;40.70;20.50;;;;;;5054089;28;20226;-68
2022/05/09 11:15:19;;;;;;;5.53;4.90;;;41.00;20.50;;;;;;5053770;28;20607;-68
2022/05/09 11:18:01;;;;;;;6.60;3.70;;;41.20;19.60;;;;;;5054142;28;20190;-68
2022/05/09 11:20:32;;;;;;;5.80;4.88;;;41.00;19.90;;;;;;5054001;28;20282;-68
2022/05/09 11:23:14;;;;;;;6.50;4.63;;;40.80;20.00;;;;;;5053790;28;20596;-68
2022/05/09 11:25:57;;;;;;;6.22;4.05;;;41.00;19.30;;;;;;5053565;28;20194;-68
2022/05/09 11:28:57;;;;;;;6.18;4.57;;;41.40;20.10;;;;;;5053875;28;20186;-68
2022/05/09 11:31:28;;;;;;;5.22;4.72;;;42.00;20.10;;;;;;5043405;28;20214;-68
2022/05/09 11:34:10;;;;;;;5.55;4.22;;;42.50;18.70;;;;;;5054038;28;20199;-69
2022/05/09 11:36:52;;;;;;;6.45;4.47;;;42.80;18.40;;;;;;5053936;28;20236;-68
2022/05/09 11:39:33;;;;;;;8.13;4.05;;;43.20;18.10;;;;;;5053840;28;20190;-68
2022/05/09 11:45:04;;;;;;;6.03;4.57;;;43.80;18.20;;;;;;5052828;28;20198;-68
2022/05/09 11:47:36;;;;;;;8.43;5.95;;;44.00;17.40;;;;;;5053225;28;20534;-69
2022/05/09 11:50:22;;;;;;;7.05;4.47;;;44.10;17.00;;;;;;5053349;28;20683;-69
2022/05/09 11:52:49;;;;;;;5.30;3.65;;;44.20;16.80;;;;;;5053599;28;20265;-68
2022/05/09 11:55:20;;;;;;;9.10;4.82;;;44.30;17.10;;;;;;5053450;28;20198;-68
2022/05/09 11:57:49;;;;;;;5.90;2.97;;;44.60;15.80;;;;;;5053387;28;20191;-69
2022/05/09 12:00:51;;;;;;;4.45;3.72;;;44.70;15.50;;;;;;5053471;28;20206;-68
2022/05/09 12:04:03;;;;;;;4.55;3.53;;;44.80;14.70;;;;;;5053210;28;20599;-68
2022/05/09 12:06:40;;;;;;;3.55;2.90;;;44.80;14.80;;;;;;5053115;28;20614;-69
2022/05/09 12:09:15;;;;;;;3.33;2.83;;;44.90;15.90;;;;;;5053333;28;20612;-69
2022/05/09 12:11:48;;;;;;;4.05;3.55;;;45.20;16.20;;;;;;5052956;28;20218;-69
2022/05/09 12:14:42;;;;;;;5.28;4.68;;;45.50;15.20;;;;;;5053253;28;20206;-69
2022/05/09 12:17:37;;;;;;;6.80;4.60;;;45.80;15.60;;;;;;5053467;28;20186;-69
2022/05/09 12:20:11;;;;;;;6.47;4.55;;;45.50;15.50;;;;;;5051169;28;20207;-69
2022/05/09 12:22:42;;;;;;;4.63;4.13;;;45.10;15.40;;;;;;5053792;28;20233;-69
2022/05/09 12:25:12;;;;;;;5.80;4.72;;;44.90;16.10;;;;;;5053906;28;20187;-69
2022/05/09 12:27:46;;;;;;;3.75;3.15;;;44.90;15.90;;;;;;5053430;28;20206;-69
2022/05/09 12:30:35;;;;;;;7.60;4.28;;;45.20;15.70;;;;;;5053253;28;20186;-69
2022/05/09 12:33:09;;;;;;;6.32;5.60;;;45.40;15.40;;;;;;5052763;28;20561;-69
2022/05/09 12:35:36;;;;;;;5.07;4.55;;;45.00;14.60;;;;;;5052778;28;20183;-68
2022/05/09 12:38:04;;;;;;;6.65;4.82;;;44.20;15.10;;;;;;5053009;28;20217;-69
2022/05/09 12:40:33;;;;;;;4.18;3.78;;;43.90;15.80;;;;;;5053163;28;20206;-69
2022/05/09 12:43:02;;;;;;;4.57;4.18;;;43.60;16.10;;;;;;5053118;28;20214;-69
2022/05/09 12:45:30;;;;;;;5.72;3.60;;;43.50;15.80;;;;;;5053172;28;20193;-69
2022/05/09 12:47:58;;;;;;;3.60;2.85;;;43.80;16.40;;;;;;5052914;28;20206;-69
2022/05/09 12:50:29;;;;;;;5.07;4.07;;;44.30;16.10;;;;;;5052980;28;20186;-69
2022/05/09 12:52:59;;;;;;;5.57;4.63;;;44.90;13.90;;;;;;5052968;28;20241;-69
2022/05/09 12:58:30;;;;;;;7.40;2.80;;;45.70;14.70;;;;;;5039888;28;20205;-69
2022/05/09 13:00:58;;;;;;;4.13;2.92;;;46.10;14.10;;;;;;5052929;28;20238;-69
2022/05/09 13:03:25;;;;;;;3.22;3.00;;;46.60;14.00;;;;;;5052731;28;20702;-69
2022/05/09 13:05:53;;;;;;;7.63;3.00;;;47.10;14.50;;;;;;5052771;28;20662;-69
2022/05/09 13:08:19;;;;;;;4.97;2.90;;;47.50;13.20;;;;;;5053027;28;20209;-69
2022/05/09 13:10:53;;;;;;;3.80;2.47;;;48.00;13.20;;;;;;5052711;28;20198;-69
2022/05/09 13:13:29;;;;;;;3.65;2.92;;;48.40;13.20;;;;;;5052723;28;20553;-69
2022/05/09 13:15:57;;;;;;;3.85;2.55;;;48.70;12.90;;;;;;5053226;28;20276;-69
2022/05/09 13:18:26;;;;;;;2.90;2.70;;;49.10;12.90;;;;;;5052744;28;20206;-69
2022/05/09 13:20:58;;;;;;;2.83;2.60;;;49.50;12.80;;;;;;5052584;28;20210;-69